Orlando, FL (32807)

2:09 PM EST on February 11, 2016 (GMT -0500)
Azalea Park | | Change Station
CLOSE
Current Station
Personal Weather Station
Location: Orlando, Fl
Elevation: 104 ft
Nearby Weather Stations

Elev 104 ft 28.54 °N, 81.30 °W | Updated 3 seconds ago

Clear
Clear
66.4 °F
Feels Like 66.4 °F
N
4.4
Wind Variable Wind from NW
Gusts 4.4 mph

Today
High -- | Low -- °F
--% Chance of Precip.
Yesterday
High -- | Low -- °F
Precip. -- in
Pressure 30.28 in
Visibility 10.0 miles
Clouds Clear
Dew Point 35 °F
Humidity 31%
Rainfall 0.00 in
Snow Depth Not available.
7:06 AM 6:12 PM
Waxing Crescent, 14% visible
METAR KORL 111853Z 30004KT 10SM CLR 18/M02 A3026 RMK AO2 SLP252 T01831017
Pressure 30.28 in
Visibility 10.0 miles
Clouds Clear
Dew Point 35 °F
Humidity 31%
Rainfall 0.00 in
Snow Depth Not available.
7:06 AM 6:12 PM
Waxing Crescent, 14% visible
METAR KORL 111853Z 30004KT 10SM CLR 18/M02 A3026 RMK AO2 SLP252 T01831017

10-Day Weather Forecast

Almanac

Astronomy

Feb. 11, 2016 Rise Set
Actual Time
Civil Twilight
Nautical Twilight
Astronomical Twilight
Moon
Length of Visible Light
Length of Day
Tomorrow will be .
, % of the Moon is Illuminated

Today's Extremes

State Highs State Lows

Community

WunderPhotos

Upload Photos

1,892,140 photos uploaded!

WunderBlog® & News

Nearby

Air Quality

  Air Quality AQ Index Pollutant
Not available.

Snow Depth

Station Depth Elevation

Earthquake Activity

City Distance Mag. Time & Date
Minimum magnitude displayed is 2.5.

Coastal Water Temperatures

Place Temperature

Stations

Nearby Weather Stations

Station Location Temp. Windchill Dew Point Humidity Wind Precip. Elev Updated Type
                   

Watches & Warnings

There are currently no watches in effect.